Airport View

Enter AWOS ICAO identifier for current METAR.

ex. KFNL

KONO 212253Z AUTO 00000KT 10SM CLR 23/04 A3007 RMK AO2 SLP177 T02330044

21 Sep 2019 23:51

Frequency: 135.275

Phone: 541-889-7388

Other Area AWOS: KEUL - KMAN - KBOI - KBKE

TAF KBOI 211730Z 2118/2218 31010KT P6SM SCT120 FM220400 13006KT P6SM FEW120